Time;durP1;ratioP1;P1;durP2;ratioP2;P2;SDS_P1;SDS_P2;PMS_P1;PMS_P2;Temp;Humidity;BMP_temperature;BMP_pressure;BME280_temperature;BME280_humidity;BME280_pressure;Samples;Min_cycle;Max_cycle;Signal;HPM_P1;HPM_P2
2023/10/09 00:01:17;;;;;;;6.65;3.25;;;;;;;;;;5030397;28;20265;-60
2023/10/09 00:03:46;;;;;;;9.80;8.95;;;;;;;;;;5030525;28;20493;-58
2023/10/09 00:06:13;;;;;;;5.70;3.33;;;;;;;;;;5030643;28;20032;-58
2023/10/09 00:08:39;;;;;;;7.22;2.70;;;;;;;;;;5030903;28;20547;-59
2023/10/09 00:11:13;;;;;;;10.07;3.65;;;;;;;;;;5031800;28;20026;-59
2023/10/09 00:13:48;;;;;;;6.88;3.15;;;;;;;;;;5030616;28;20551;-59
2023/10/09 00:16:14;;;;;;;9.25;6.13;;;;;;;;;;5031685;28;20111;-60
2023/10/09 00:18:45;;;;;;;7.50;6.47;;;;;;;;;;5034176;28;20643;-60
2023/10/09 00:21:15;;;;;;;9.80;6.03;;;;;;;;;;5033546;28;20512;-60
2023/10/09 00:23:41;;;;;;;7.70;3.42;;;;;;;;;;5033400;28;20022;-58
2023/10/09 00:26:10;;;;;;;7.68;3.08;;;;;;;;;;5033504;28;20079;-60
2023/10/09 00:28:36;;;;;;;7.13;5.97;;;;;;;;;;5033411;28;20021;-60
2023/10/09 00:31:06;;;;;;;12.73;11.45;;;;;;;;;;5033371;28;20033;-60
2023/10/09 00:33:32;;;;;;;6.65;3.30;;;;;;;;;;5033714;28;20030;-60
2023/10/09 00:35:58;;;;;;;7.45;3.88;;;;;;;;;;5033571;28;20412;-60
2023/10/09 00:38:24;;;;;;;7.10;4.22;;;;;;;;;;5033630;28;20013;-60
2023/10/09 00:41:03;;;;;;;7.68;4.70;;;;;;;;;;5033130;28;20040;-60
2023/10/09 00:43:29;;;;;;;10.10;3.60;;;;;;;;;;5033363;28;20018;-60
2023/10/09 00:45:56;;;;;;;8.27;5.30;;;;;;;;;;5033295;28;20527;-59
2023/10/09 00:48:30;;;;;;;9.57;3.85;;;;;;;;;;5032978;28;20227;-59
2023/10/09 00:50:59;;;;;;;8.77;6.78;;;;;;;;;;5032785;28;20053;-60
2023/10/09 00:53:32;;;;;;;7.47;3.67;;;;;;;;;;5033359;28;20017;-59
2023/10/09 00:56:04;;;;;;;14.82;13.60;;;;;;;;;;5033211;28;20025;-60
2023/10/09 00:58:31;;;;;;;12.25;10.70;;;;;;;;;;5033373;28;20498;-60
2023/10/09 01:00:58;;;;;;;43.63;40.45;;;;;;;;;;5032411;28;20030;-59
2023/10/09 01:03:24;;;;;;;8.23;3.60;;;;;;;;;;5032829;28;20025;-59
2023/10/09 01:05:52;;;;;;;8.43;4.43;;;;;;;;;;5032894;28;20467;-59
2023/10/09 01:10:56;;;;;;;8.57;4.35;;;;;;;;;;5032248;28;20053;-60
2023/10/09 01:13:28;;;;;;;21.02;19.58;;;;;;;;;;5032587;28;20013;-60
2023/10/09 01:15:53;;;;;;;8.02;5.95;;;;;;;;;;5032805;28;20497;-59
2023/10/09 01:18:19;;;;;;;7.43;5.03;;;;;;;;;;5032593;28;20028;-58
2023/10/09 01:20:45;;;;;;;;;;;;;;;;;;5032650;28;21057;-59
2023/10/09 01:23:11;;;;;;;11.00;9.52;;;;;;;;;;5032799;28;19909;-59
2023/10/09 01:25:43;;;;;;;29.48;27.35;;;;;;;;;;5032824;28;20032;-59
2023/10/09 01:28:08;;;;;;;8.07;4.45;;;;;;;;;;5031604;28;20018;-60
2023/10/09 01:30:34;;;;;;;9.37;8.17;;;;;;;;;;5031720;28;20021;-60
2023/10/09 01:33:11;;;;;;;17.65;15.98;;;;;;;;;;5032137;28;20021;-58
2023/10/09 01:35:38;;;;;;;39.95;37.40;;;;;;;;;;5032430;28;20071;-58
2023/10/09 01:38:10;;;;;;;10.60;7.35;;;;;;;;;;5032601;28;20017;-60
2023/10/09 01:40:37;;;;;;;7.28;4.63;;;;;;;;;;5031422;28;20720;-60
2023/10/09 01:43:03;;;;;;;8.10;6.32;;;;;;;;;;5032092;28;20100;-60
2023/10/09 01:45:29;;;;;;;8.93;7.90;;;;;;;;;;5032267;28;20051;-59
2023/10/09 01:47:54;;;;;;;14.05;5.63;;;;;;;;;;5032078;28;20059;-59
2023/10/09 01:50:22;;;;;;;7.83;4.60;;;;;;;;;;5031704;28;20366;-60
2023/10/09 01:52:47;;;;;;;9.15;7.50;;;;;;;;;;5032247;28;20041;-60
2023/10/09 01:55:28;;;;;;;10.02;9.10;;;;;;;;;;5031898;28;20055;-59
2023/10/09 01:57:53;;;;;;;7.35;5.13;;;;;;;;;;5032157;28;20029;-60
2023/10/09 02:00:27;;;;;;;9.27;8.27;;;;;;;;;;5031715;28;20021;-60
2023/10/09 02:02:53;;;;;;;9.65;7.70;;;;;;;;;;5031667;28;20021;-59
2023/10/09 02:07:44;;;;;;;10.23;9.33;;;;;;;;;;5032279;28;20049;-58
2023/10/09 02:12:57;;;;;;;9.55;8.10;;;;;;;;;;5031988;28;20112;-56
2023/10/09 02:16:13;;;;;;;9.27;8.30;;;;;;;;;;5031348;28;20021;-59
2023/10/09 02:21:39;;;;;;;8.05;4.43;;;;;;;;;;5030872;28;20029;-59
2023/10/09 02:23:51;;;;;;;5.82;2.97;;;;;;;;;;5031161;28;20033;-60
2023/10/09 02:26:25;;;;;;;36.08;33.53;;;;;;;;;;5031489;28;20021;-60
2023/10/09 02:29:00;;;;;;;7.75;3.72;;;;;;;;;;5031545;28;20076;-59
2023/10/09 02:31:27;;;;;;;10.60;9.40;;;;;;;;;;5031330;28;20021;-59
2023/10/09 02:33:55;;;;;;;23.25;21.42;;;;;;;;;;5031140;28;20482;-59
2023/10/09 02:36:20;;;;;;;10.32;8.45;;;;;;;;;;5031607;28;20026;-59
2023/10/09 02:38:48;;;;;;;14.38;13.18;;;;;;;;;;5031272;28;20033;-59
2023/10/09 02:43:46;;;;;;;7.73;6.30;;;;;;;;;;5031311;28;20543;-60
2023/10/09 02:46:18;;;;;;;7.68;4.47;;;;;;;;;;5032648;28;20526;-59
2023/10/09 02:48:48;;;;;;;12.07;9.95;;;;;;;;;;5033125;28;20045;-61
2023/10/09 02:51:22;;;;;;;6.88;4.03;;;;;;;;;;5031024;28;20028;-58
2023/10/09 02:53:49;;;;;;;12.15;11.05;;;;;;;;;;5031343;28;20076;-58
2023/10/09 02:56:17;;;;;;;7.50;5.85;;;;;;;;;;5031558;28;20056;-58
2023/10/09 02:58:43;;;;;;;6.60;4.57;;;;;;;;;;5032373;28;20025;-58
2023/10/09 03:01:13;;;;;;;7.60;3.75;;;;;;;;;;5034483;28;20054;-61
2023/10/09 03:03:38;;;;;;;19.63;18.17;;;;;;;;;;5039456;28;20013;-59
2023/10/09 03:06:10;;;;;;;33.40;31.30;;;;;;;;;;5036456;28;20021;-60
2023/10/09 03:08:36;;;;;;;13.63;12.50;;;;;;;;;;5030826;28;20026;-60
2023/10/09 03:11:02;;;;;;;16.38;15.05;;;;;;;;;;5030601;28;20079;-60
2023/10/09 03:13:28;;;;;;;9.50;4.17;;;;;;;;;;5030740;28;20412;-59
2023/10/09 03:15:54;;;;;;;25.50;23.60;;;;;;;;;;5031016;28;20362;-59
2023/10/09 03:18:20;;;;;;;8.33;6.27;;;;;;;;;;5030856;28;20021;-60
2023/10/09 03:20:47;;;;;;;12.82;11.57;;;;;;;;;;5030483;28;20035;-60
2023/10/09 03:23:14;;;;;;;9.93;4.20;;;;;;;;;;5030970;28;20089;-59
2023/10/09 03:25:39;;;;;;;32.25;29.77;;;;;;;;;;5031133;28;20018;-60
2023/10/09 03:28:04;;;;;;;13.30;12.15;;;;;;;;;;5031155;28;20030;-59
2023/10/09 03:30:32;;;;;;;8.07;4.97;;;;;;;;;;5030277;28;20021;-60
2023/10/09 03:33:00;;;;;;;9.00;7.07;;;;;;;;;;5031120;28;20040;-59
2023/10/09 03:35:26;;;;;;;18.52;17.08;;;;;;;;;;5031021;28;20113;-58
2023/10/09 03:40:43;;;;;;;12.23;8.98;;;;;;;;;;5030121;28;20067;-58
2023/10/09 03:43:11;;;;;;;10.18;8.88;;;;;;;;;;5030919;28;20017;-61
2023/10/09 03:45:38;;;;;;;9.32;5.30;;;;;;;;;;5030829;28;20043;-60
2023/10/09 03:48:15;;;;;;;20.10;18.52;;;;;;;;;;5030855;28;20052;-59
2023/10/09 03:50:43;;;;;;;16.65;15.25;;;;;;;;;;5028749;28;20116;-60
2023/10/09 03:53:08;;;;;;;10.57;8.32;;;;;;;;;;5034438;28;20029;-60
2023/10/09 03:55:34;;;;;;;19.87;18.37;;;;;;;;;;5034125;28;20488;-59
2023/10/09 03:58:00;;;;;;;21.98;20.25;;;;;;;;;;5034283;28;20021;-58
2023/10/09 04:00:28;;;;;;;22.42;20.45;;;;;;;;;;5033616;28;20053;-60
2023/10/09 04:02:54;;;;;;;22.27;20.33;;;;;;;;;;5033844;28;20116;-58
2023/10/09 04:05:20;;;;;;;13.20;11.82;;;;;;;;;;5034010;28;20111;-59
2023/10/09 04:07:45;;;;;;;31.33;29.07;;;;;;;;;;5033893;28;20109;-58
2023/10/09 04:12:58;;;;;;;;;;;;;;;;;;5034492;28;20028;-59
2023/10/09 04:15:23;;;;;;;33.03;30.58;;;;;;;;;;5034232;28;20280;-60
2023/10/09 04:17:51;;;;;;;29.45;27.38;;;;;;;;;;5033869;28;20100;-60
2023/10/09 04:22:50;;;;;;;14.88;13.38;;;;;;;;;;5033864;28;20443;-59
2023/10/09 04:25:25;;;;;;;11.40;8.07;;;;;;;;;;5033622;28;20366;-60
2023/10/09 04:27:59;;;;;;;51.22;48.08;;;;;;;;;;5033526;28;20017;-60
2023/10/09 04:30:26;;;;;;;30.58;28.42;;;;;;;;;;5031641;28;20025;-60
2023/10/09 04:32:55;;;;;;;54.38;51.10;;;;;;;;;;5033334;28;20020;-59
2023/10/09 04:35:22;;;;;;;15.77;14.38;;;;;;;;;;5033620;28;20076;-59
2023/10/09 04:38:04;;;;;;;11.10;9.57;;;;;;;;;;5033606;28;20378;-59
2023/10/09 04:40:48;;;;;;;17.63;16.08;;;;;;;;;;5033009;28;20031;-60
2023/10/09 04:43:22;;;;;;;28.40;26.42;;;;;;;;;;5033085;28;20027;-58
2023/10/09 04:46:07;;;;;;;41.30;38.60;;;;;;;;;;5032098;28;20041;-58
2023/10/09 04:48:33;;;;;;;15.48;14.02;;;;;;;;;;5033160;28;20033;-60
2023/10/09 04:53:54;;;;;;;96.75;91.07;;;;;;;;;;5033295;28;20554;-60
2023/10/09 04:56:23;;;;;;;23.27;21.55;;;;;;;;;;5033095;28;20049;-60
2023/10/09 04:58:49;;;;;;;19.10;17.42;;;;;;;;;;5033040;28;20123;-60
2023/10/09 05:01:35;;;;;;;14.85;13.38;;;;;;;;;;5032462;28;20053;-60
2023/10/09 05:04:04;;;;;;;91.03;85.60;;;;;;;;;;5032608;28;20032;-60
2023/10/09 05:06:55;;;;;;;78.78;74.20;;;;;;;;;;5033074;28;20543;-60
2023/10/09 05:09:21;;;;;;;26.77;24.75;;;;;;;;;;5032253;28;20045;-60
2023/10/09 05:14:17;;;;;;;21.50;19.80;;;;;;;;;;5032929;28;20030;-59
2023/10/09 05:16:54;;;;;;;35.67;33.10;;;;;;;;;;5032608;28;20024;-60
2023/10/09 05:22:16;;;;;;;49.35;46.28;;;;;;;;;;5032597;28;20056;-59
2023/10/09 05:24:47;;;;;;;27.25;24.92;;;;;;;;;;5032873;28;20036;-61
2023/10/09 05:27:18;;;;;;;60.00;56.28;;;;;;;;;;5033101;28;20029;-59
2023/10/09 05:29:59;;;;;;;81.55;76.20;;;;;;;;;;5032164;28;20021;-59
2023/10/09 05:32:34;;;;;;;43.78;40.67;;;;;;;;;;5032784;28;20184;-59
2023/10/09 05:37:43;;;;;;;62.10;57.93;;;;;;;;;;5032991;28;20099;-59
2023/10/09 05:42:43;;;;;;;256.80;241.10;;;;;;;;;;5032471;28;20025;-60
2023/10/09 06:08:26;;;;;;;97.35;91.20;;;;;;;;;;5033494;28;20485;-61
2023/10/09 06:11:38;;;;;;;43.80;40.60;;;;;;;;;;5031891;28;20034;-59
2023/10/09 06:14:12;;;;;;;71.32;66.38;;;;;;;;;;5031037;28;20014;-59
2023/10/09 06:24:28;;;;;;;71.32;66.63;;;;;;;;;;5031346;28;20021;-59
2023/10/09 06:29:35;;;;;;;76.05;70.90;;;;;;;;;;5031110;28;20018;-58
2023/10/09 06:32:23;;;;;;;55.95;52.17;;;;;;;;;;5031245;28;20014;-60
2023/10/09 06:34:52;;;;;;;53.67;49.92;;;;;;;;;;5031755;28;20023;-58
2023/10/09 06:45:16;;;;;;;62.75;58.75;;;;;;;;;;5031271;28;20018;-60
2023/10/09 06:47:42;;;;;;;33.28;30.33;;;;;;;;;;5030056;28;20669;-60
2023/10/09 06:52:57;;;;;;;46.95;43.53;;;;;;;;;;5031488;28;20021;-59
2023/10/09 06:55:32;;;;;;;27.75;25.50;;;;;;;;;;5031347;28;20034;-60
2023/10/09 06:58:01;;;;;;;22.23;20.17;;;;;;;;;;5032054;28;20029;-60
2023/10/09 07:03:13;;;;;;;60.88;56.88;;;;;;;;;;5031361;28;20455;-60
2023/10/09 07:06:23;;;;;;;31.08;28.40;;;;;;;;;;5031368;28;20406;-58
2023/10/09 07:08:37;;;;;;;21.10;19.10;;;;;;;;;;5028275;28;20127;-61
2023/10/09 07:12:09;;;;;;;43.35;40.30;;;;;;;;;;5030119;28;20485;-60
2023/10/09 07:14:01;;;;;;;72.15;67.32;;;;;;;;;;5025592;28;20087;-60
2023/10/09 07:16:38;;;;;;;31.35;28.83;;;;;;;;;;5030935;28;20067;-60
2023/10/09 07:19:09;;;;;;;71.50;66.63;;;;;;;;;;5030670;28;20516;-60
2023/10/09 07:21:35;;;;;;;19.30;17.42;;;;;;;;;;5030846;28;20020;-59
2023/10/09 07:24:14;;;;;;;62.00;57.85;;;;;;;;;;5031003;28;20022;-61
2023/10/09 07:26:47;;;;;;;102.28;94.97;;;;;;;;;;5033484;28;20072;-60
2023/10/09 07:29:21;;;;;;;57.92;54.03;;;;;;;;;;5035196;28;20025;-59
2023/10/09 07:31:47;;;;;;;46.90;43.30;;;;;;;;;;5035202;28;20009;-59
2023/10/09 07:34:30;;;;;;;48.35;44.72;;;;;;;;;;5034915;28;20032;-58
2023/10/09 07:37:03;;;;;;;48.15;44.60;;;;;;;;;;5034968;28;20017;-59
2023/10/09 07:39:34;;;;;;;41.38;38.38;;;;;;;;;;5034347;28;20033;-60
2023/10/09 07:42:14;;;;;;;96.07;90.07;;;;;;;;;;5035029;28;20021;-60
2023/10/09 07:44:42;;;;;;;28.85;25.63;;;;;;;;;;5034939;28;20013;-57
2023/10/09 07:47:17;;;;;;;25.40;22.95;;;;;;;;;;5034740;28;20096;-58
2023/10/09 07:49:48;;;;;;;40.38;37.03;;;;;;;;;;5034691;28;20029;-59
2023/10/09 07:52:13;;;;;;;23.33;21.10;;;;;;;;;;5034873;28;20102;-61
2023/10/09 07:54:47;;;;;;;43.73;40.63;;;;;;;;;;5034346;28;20081;-60
2023/10/09 07:57:15;;;;;;;29.48;27.00;;;;;;;;;;5034274;28;20109;-60
2023/10/09 07:59:41;;;;;;;57.25;52.85;;;;;;;;;;5033880;28;20025;-60
2023/10/09 08:02:09;;;;;;;33.83;31.00;;;;;;;;;;5034185;28;20029;-60
2023/10/09 08:04:49;;;;;;;58.65;54.63;;;;;;;;;;5032457;28;20033;-60
2023/10/09 08:07:34;;;;;;;21.63;19.33;;;;;;;;;;5034084;28;20044;-59
2023/10/09 08:15:20;;;;;;;35.13;31.65;;;;;;;;;;5034752;28;20018;-58
2023/10/09 08:20:51;;;;;;;40.15;36.47;;;;;;;;;;5040784;28;20028;-59
2023/10/09 08:23:28;;;;;;;50.65;46.80;;;;;;;;;;5042642;28;20060;-60
2023/10/09 08:26:12;;;;;;;72.07;66.90;;;;;;;;;;5035712;28;20060;-59
2023/10/09 08:28:42;;;;;;;36.38;33.15;;;;;;;;;;5033382;28;20114;-59
2023/10/09 08:31:34;;;;;;;46.10;42.70;;;;;;;;;;5032957;28;20018;-60
2023/10/09 08:34:00;;;;;;;77.75;72.60;;;;;;;;;;5032839;28;20068;-60
2023/10/09 08:36:28;;;;;;;;;;;;;;;;;;5033380;28;20493;-59
2023/10/09 08:38:58;;;;;;;46.40;42.92;;;;;;;;;;5032049;28;19912;-57
2023/10/09 08:41:29;;;;;;;47.42;43.72;;;;;;;;;;5032321;28;20561;-57
2023/10/09 08:43:55;;;;;;;72.53;67.70;;;;;;;;;;5032487;28;20101;-59
2023/10/09 08:46:22;;;;;;;97.70;91.30;;;;;;;;;;5033127;28;20148;-60
2023/10/09 08:48:48;;;;;;;66.47;61.25;;;;;;;;;;5032797;28;20032;-60
2023/10/09 08:51:14;;;;;;;126.88;118.15;;;;;;;;;;5032354;28;20033;-60
2023/10/09 08:53:42;;;;;;;82.13;76.22;;;;;;;;;;5032604;28;20122;-60
2023/10/09 08:56:08;;;;;;;87.82;81.28;;;;;;;;;;5031949;28;20126;-60
2023/10/09 08:58:37;;;;;;;59.10;54.38;;;;;;;;;;5032320;28;20499;-59
2023/10/09 09:01:02;;;;;;;156.60;145.80;;;;;;;;;;5030743;28;20043;-60
2023/10/09 09:03:36;;;;;;;114.23;105.90;;;;;;;;;;5032922;28;20358;-60
2023/10/09 09:06:02;;;;;;;143.77;133.23;;;;;;;;;;5034349;28;20041;-60
2023/10/09 09:08:28;;;;;;;137.27;126.97;;;;;;;;;;5034480;28;20477;-59
2023/10/09 09:11:12;;;;;;;154.68;143.50;;;;;;;;;;5032507;28;20040;-59
2023/10/09 09:13:41;;;;;;;116.97;108.38;;;;;;;;;;5031951;28;20017;-60
2023/10/09 09:16:13;;;;;;;172.43;160.30;;;;;;;;;;5032121;28;20096;-60
2023/10/09 09:18:48;;;;;;;99.07;91.27;;;;;;;;;;4994578;28;1036028;-60
2023/10/09 09:21:21;;;;;;;150.02;139.68;;;;;;;;;;5032179;28;20032;-60
2023/10/09 09:23:54;;;;;;;151.20;139.10;;;;;;;;;;5032834;28;20021;-60
2023/10/09 09:26:34;;;;;;;68.43;62.75;;;;;;;;;;5033334;28;20035;-60
2023/10/09 09:28:59;;;;;;;194.07;179.20;;;;;;;;;;5032648;28;20029;-60
2023/10/09 09:31:25;;;;;;;116.40;107.95;;;;;;;;;;5032292;28;20457;-60
2023/10/09 09:33:58;;;;;;;141.13;130.57;;;;;;;;;;5032471;28;20083;-60
2023/10/09 09:36:28;;;;;;;100.32;92.80;;;;;;;;;;5032876;28;20025;-60
2023/10/09 09:39:01;;;;;;;142.35;131.88;;;;;;;;;;5032303;28;20026;-59
2023/10/09 09:41:26;;;;;;;139.48;129.38;;;;;;;;;;5032160;28;20021;-61
2023/10/09 09:43:51;;;;;;;234.65;217.27;;;;;;;;;;5032120;28;20095;-59
2023/10/09 09:46:18;;;;;;;133.98;123.78;;;;;;;;;;5032017;28;20057;-60
2023/10/09 09:48:47;;;;;;;;;;;;;;;;;;5031939;28;20037;-61
2023/10/09 09:51:14;;;;;;;136.13;125.93;;;;;;;;;;5031939;28;19951;-62
2023/10/09 09:53:40;;;;;;;198.90;184.60;;;;;;;;;;5030926;28;20096;-60
2023/10/09 09:56:05;;;;;;;195.15;180.95;;;;;;;;;;5031869;28;20056;-59
2023/10/09 09:58:42;;;;;;;173.27;160.90;;;;;;;;;;5031925;28;20025;-60
2023/10/09 10:01:16;;;;;;;211.60;195.95;;;;;;;;;;5031406;28;20424;-61
2023/10/09 10:03:47;;;;;;;126.28;117.05;;;;;;;;;;5032380;28;20148;-60
2023/10/09 10:06:14;;;;;;;146.05;135.50;;;;;;;;;;5031774;28;20486;-61
2023/10/09 10:08:41;;;;;;;195.65;181.20;;;;;;;;;;5031698;28;20036;-59
2023/10/09 10:11:13;;;;;;;323.02;298.08;;;;;;;;;;5031079;28;20366;-60
2023/10/09 10:13:41;;;;;;;211.90;196.07;;;;;;;;;;5031908;28;20021;-59
2023/10/09 10:16:34;;;;;;;205.65;189.93;;;;;;;;;;5031577;28;20032;-60
2023/10/09 10:18:55;;;;;;;275.83;253.75;;;;;;;;;;5030912;28;20033;-60
2023/10/09 10:24:05;;;;;;;260.95;241.10;;;;;;;;;;5031484;28;20022;-58
2023/10/09 10:26:33;;;;;;;188.82;174.35;;;;;;;;;;5031494;28;20029;-59
2023/10/09 10:29:23;;;;;;;146.27;135.32;;;;;;;;;;5031504;28;20096;-59
2023/10/09 10:31:51;;;;;;;161.25;148.95;;;;;;;;;;5031156;28;20025;-60
2023/10/09 10:34:23;;;;;;;99.80;91.80;;;;;;;;;;5031396;28;20017;-61
2023/10/09 10:36:52;;;;;;;253.85;232.57;;;;;;;;;;5031402;28;20052;-58
2023/10/09 10:39:21;;;;;;;163.60;151.45;;;;;;;;;;5031312;28;20025;-59
2023/10/09 10:41:57;;;;;;;101.13;93.07;;;;;;;;;;5031332;28;20503;-60
2023/10/09 10:44:44;;;;;;;141.95;129.60;;;;;;;;;;5031339;28;20099;-59
2023/10/09 10:47:24;;;;;;;203.68;187.80;;;;;;;;;;5032038;28;20041;-59
2023/10/09 10:49:58;;;;;;;163.93;151.88;;;;;;;;;;5031560;28;20108;-61
2023/10/09 10:52:35;;;;;;;188.48;174.60;;;;;;;;;;5031762;28;20024;-59
2023/10/09 10:57:53;;;;;;;;;;;;;;;;;;5031925;28;20389;-59
2023/10/09 11:03:17;;;;;;;;;;;;;;;;;;5031847;28;20520;-61
2023/10/09 11:05:50;;;;;;;201.13;185.98;;;;;;;;;;5030901;28;19988;-61
2023/10/09 11:08:15;;;;;;;201.95;186.75;;;;;;;;;;5031529;28;20056;-60
2023/10/09 11:10:49;;;;;;;93.72;85.88;;;;;;;;;;5030761;28;20374;-61
2023/10/09 11:13:30;;;;;;;139.90;128.57;;;;;;;;;;5011565;28;20014;-61
2023/10/09 11:16:14;;;;;;;105.13;97.88;;;;;;;;;;5011176;28;20018;-60
2023/10/09 11:18:42;;;;;;;73.25;68.15;;;;;;;;;;5011119;28;20029;-61
2023/10/09 11:26:21;;;;;;;77.72;72.18;;;;;;;;;;5011407;28;20031;-61
2023/10/09 11:28:57;;;;;;;103.22;95.93;;;;;;;;;;5010865;28;20041;-60
2023/10/09 11:31:22;;;;;;;41.35;37.42;;;;;;;;;;5010681;28;20024;-60
2023/10/09 11:33:48;;;;;;;88.32;82.18;;;;;;;;;;5010896;28;20109;-61
2023/10/09 11:36:31;;;;;;;66.65;61.30;;;;;;;;;;5010676;28;20079;-62
2023/10/09 11:39:13;;;;;;;68.35;63.40;;;;;;;;;;5010846;28;20072;-61
2023/10/09 11:41:41;;;;;;;82.40;76.13;;;;;;;;;;5010629;28;20022;-61
2023/10/09 11:44:06;;;;;;;60.38;55.60;;;;;;;;;;5009577;28;20104;-62
2023/10/09 11:46:50;;;;;;;64.80;59.87;;;;;;;;;;5010859;28;20030;-61
2023/10/09 11:54:45;;;;;;;74.40;68.22;;;;;;;;;;5020273;28;20032;-60
2023/10/09 11:57:10;;;;;;;80.03;73.72;;;;;;;;;;5010848;28;20018;-60
2023/10/09 11:59:38;;;;;;;76.73;70.00;;;;;;;;;;5009949;28;20098;-60
2023/10/09 12:02:11;;;;;;;78.07;72.25;;;;;;;;;;5010706;28;20034;-62
2023/10/09 12:04:37;;;;;;;64.53;59.30;;;;;;;;;;5010952;28;20026;-61
2023/10/09 12:07:09;;;;;;;82.43;75.97;;;;;;;;;;5010755;28;20040;-62
2023/10/09 12:09:34;;;;;;;75.22;69.13;;;;;;;;;;5010270;28;20032;-62
2023/10/09 12:12:00;;;;;;;117.97;109.68;;;;;;;;;;5020453;28;20030;-62
2023/10/09 12:14:26;;;;;;;153.82;142.48;;;;;;;;;;5034244;28;20489;-61
2023/10/09 12:16:52;;;;;;;120.53;111.30;;;;;;;;;;5034173;28;20053;-60
2023/10/09 12:19:18;;;;;;;140.00;128.85;;;;;;;;;;5033863;28;20105;-62
2023/10/09 12:21:43;;;;;;;127.90;117.85;;;;;;;;;;5033748;28;20048;-62
2023/10/09 12:24:11;;;;;;;120.23;111.23;;;;;;;;;;5033898;28;20029;-62
2023/10/09 12:26:39;;;;;;;110.03;101.70;;;;;;;;;;5033837;28;20026;-62
2023/10/09 12:29:10;;;;;;;121.78;112.40;;;;;;;;;;5033671;28;20033;-61
2023/10/09 12:31:35;;;;;;;110.32;101.53;;;;;;;;;;5033256;28;20014;-61
2023/10/09 12:34:01;;;;;;;195.07;181.17;;;;;;;;;;5033549;28;20100;-61
2023/10/09 12:36:26;;;;;;;102.43;94.53;;;;;;;;;;5033946;28;20021;-61
2023/10/09 12:38:58;;;;;;;115.50;106.60;;;;;;;;;;5033962;28;20040;-62
2023/10/09 12:41:27;;;;;;;;;;;;;;;;;;5033832;28;20033;-61
2023/10/09 12:43:53;;;;;;;88.22;82.00;;;;;;;;;;5033299;28;19916;-62
2023/10/09 12:46:22;;;;;;;127.43;117.80;;;;;;;;;;5033386;28;20018;-62
2023/10/09 12:48:48;;;;;;;140.98;130.90;;;;;;;;;;5033281;28;20029;-62
2023/10/09 12:51:16;;;;;;;130.60;121.22;;;;;;;;;;5032882;28;20428;-62
2023/10/09 12:53:45;;;;;;;110.85;101.70;;;;;;;;;;5033302;28;20025;-62
2023/10/09 12:56:12;;;;;;;78.35;71.18;;;;;;;;;;5032938;28;20017;-62
2023/10/09 12:58:37;;;;;;;58.17;46.58;;;;;;;;;;5033147;28;20481;-61
2023/10/09 13:01:09;;;;;;;68.03;62.10;;;;;;;;;;5032916;28;20029;-61
2023/10/09 13:03:38;;;;;;;61.80;56.83;;;;;;;;;;5032947;28;20018;-61
2023/10/09 13:06:07;;;;;;;57.10;51.80;;;;;;;;;;5033323;28;20390;-63
2023/10/09 13:08:35;;;;;;;54.63;49.58;;;;;;;;;;5033463;28;20549;-60
2023/10/09 13:11:10;;;;;;;44.80;40.22;;;;;;;;;;5032960;28;20022;-62
2023/10/09 13:13:39;;;;;;;41.28;36.25;;;;;;;;;;5033064;28;20009;-60
2023/10/09 13:16:06;;;;;;;28.23;20.60;;;;;;;;;;5033129;28;20013;-61
2023/10/09 13:18:31;;;;;;;45.95;42.15;;;;;;;;;;5032739;28;20018;-62
2023/10/09 13:20:57;;;;;;;38.30;33.55;;;;;;;;;;5032481;28;20025;-62
2023/10/09 13:23:33;;;;;;;43.08;37.47;;;;;;;;;;5034278;28;20028;-61
2023/10/09 13:26:06;;;;;;;36.50;32.67;;;;;;;;;;5032466;28;20017;-61
2023/10/09 13:28:31;;;;;;;40.95;36.67;;;;;;;;;;5032694;28;20026;-60
2023/10/09 13:30:56;;;;;;;53.05;48.63;;;;;;;;;;5032273;28;20444;-62
2023/10/09 13:33:21;;;;;;;39.10;28.30;;;;;;;;;;5032375;28;20036;-62
2023/10/09 13:35:50;;;;;;;38.83;34.95;;;;;;;;;;5033076;28;20021;-61
2023/10/09 13:38:16;;;;;;;43.63;39.60;;;;;;;;;;5032394;28;20021;-61
2023/10/09 13:40:42;;;;;;;43.85;39.75;;;;;;;;;;5032473;28;20018;-61
2023/10/09 13:43:07;;;;;;;91.63;85.13;;;;;;;;;;5032923;28;20017;-61
2023/10/09 13:45:37;;;;;;;61.30;55.80;;;;;;;;;;5033714;28;20045;-61
2023/10/09 13:48:04;;;;;;;78.80;73.28;;;;;;;;;;5033551;28;20026;-61
2023/10/09 13:50:32;;;;;;;65.68;60.58;;;;;;;;;;5033374;28;20025;-61
2023/10/09 13:52:58;;;;;;;37.17;26.98;;;;;;;;;;5032497;28;20029;-61
2023/10/09 13:55:31;;;;;;;48.45;44.40;;;;;;;;;;5032354;28;20029;-61
2023/10/09 13:57:57;;;;;;;45.05;40.28;;;;;;;;;;5032196;28;20029;-62
2023/10/09 14:00:41;;;;;;;38.33;32.58;;;;;;;;;;5031718;28;20184;-62
2023/10/09 14:03:11;;;;;;;50.83;46.67;;;;;;;;;;5032230;28;20025;-61
2023/10/09 14:05:51;;;;;;;50.05;45.75;;;;;;;;;;5032279;28;20408;-62
2023/10/09 14:08:16;;;;;;;32.08;22.35;;;;;;;;;;5031904;28;20090;-62
2023/10/09 14:10:41;;;;;;;39.97;35.90;;;;;;;;;;5031173;28;20025;-61
2023/10/09 14:13:12;;;;;;;28.83;25.55;;;;;;;;;;5031898;28;20021;-61
2023/10/09 14:15:41;;;;;;;49.45;45.22;;;;;;;;;;5030522;28;20030;-61
2023/10/09 14:18:08;;;;;;;57.53;53.25;;;;;;;;;;5031653;28;20013;-61
2023/10/09 14:20:34;;;;;;;41.58;37.55;;;;;;;;;;5031043;28;20481;-62
2023/10/09 14:23:06;;;;;;;39.20;35.10;;;;;;;;;;5031711;28;20025;-62
2023/10/09 14:25:31;;;;;;;;;;;;;;;;;;5032141;28;20033;-61
2023/10/09 14:27:57;;;;;;;39.75;35.97;;;;;;;;;;5031813;28;19905;-61
2023/10/09 14:30:30;;;;;;;;;;;;;;;;;;5031602;28;20033;-61
2023/10/09 14:32:56;;;;;;;24.63;20.00;;;;;;;;;;5030198;28;20000;-61
2023/10/09 14:35:26;;;;;;;31.02;28.20;;;;;;;;;;5030978;28;20381;-61
2023/10/09 14:37:51;;;;;;;42.97;38.85;;;;;;;;;;5030886;28;20017;-60
2023/10/09 14:40:20;;;;;;;48.07;44.07;;;;;;;;;;5030666;28;20036;-62
2023/10/09 14:42:46;;;;;;;47.50;43.40;;;;;;;;;;5031435;28;20022;-62
2023/10/09 14:45:15;;;;;;;49.92;46.05;;;;;;;;;;5031233;28;20072;-61
2023/10/09 14:47:41;;;;;;;40.67;37.17;;;;;;;;;;5031139;28;20025;-62
2023/10/09 14:50:08;;;;;;;51.22;46.83;;;;;;;;;;5030801;28;20481;-59
2023/10/09 14:52:34;;;;;;;45.70;41.65;;;;;;;;;;5030910;28;20037;-61
2023/10/09 14:55:00;;;;;;;25.75;22.02;;;;;;;;;;5031032;28;20048;-61
2023/10/09 14:57:26;;;;;;;44.50;40.90;;;;;;;;;;5030847;28;20669;-62
2023/10/09 14:59:52;;;;;;;56.75;51.85;;;;;;;;;;5029567;28;20018;-60
2023/10/09 15:02:17;;;;;;;42.50;38.85;;;;;;;;;;5029920;28;20120;-62
2023/10/09 15:04:43;;;;;;;63.85;59.13;;;;;;;;;;5030686;28;20096;-60
2023/10/09 15:07:08;;;;;;;56.85;51.85;;;;;;;;;;5031058;28;20152;-61
2023/10/09 15:09:36;;;;;;;47.70;43.93;;;;;;;;;;5031717;28;20030;-60
2023/10/09 15:12:01;;;;;;;56.03;51.50;;;;;;;;;;5030825;28;20423;-61
2023/10/09 15:14:26;;;;;;;49.97;45.50;;;;;;;;;;5031068;28;20017;-62
2023/10/09 15:16:51;;;;;;;70.57;65.72;;;;;;;;;;5030610;28;20068;-62
2023/10/09 15:19:16;;;;;;;35.72;32.53;;;;;;;;;;5030493;28;20493;-62
2023/10/09 15:21:45;;;;;;;41.13;37.83;;;;;;;;;;5030719;28;20025;-62
2023/10/09 15:24:15;;;;;;;35.45;29.58;;;;;;;;;;5030849;28;20021;-61
2023/10/09 15:26:41;;;;;;;43.00;39.35;;;;;;;;;;5032102;28;20089;-62
2023/10/09 15:29:06;;;;;;;32.92;30.00;;;;;;;;;;5032215;28;20493;-62
2023/10/09 15:31:32;;;;;;;29.65;26.80;;;;;;;;;;5030751;28;20021;-62
2023/10/09 15:33:57;;;;;;;54.63;50.60;;;;;;;;;;5031994;28;20501;-62
2023/10/09 15:36:25;;;;;;;58.63;54.72;;;;;;;;;;5030684;28;20481;-60
2023/10/09 15:38:50;;;;;;;40.50;37.38;;;;;;;;;;5030709;28;20637;-62
2023/10/09 15:41:16;;;;;;;65.93;61.63;;;;;;;;;;5030079;28;20124;-62
2023/10/09 15:43:41;;;;;;;48.78;44.80;;;;;;;;;;5029375;28;20424;-60
2023/10/09 15:46:10;;;;;;;33.38;30.40;;;;;;;;;;5029491;28;20021;-61
2023/10/09 15:48:37;;;;;;;36.88;33.83;;;;;;;;;;5033091;28;20036;-62
2023/10/09 15:51:02;;;;;;;36.25;33.13;;;;;;;;;;5034073;28;20380;-61
2023/10/09 15:53:28;;;;;;;30.48;27.67;;;;;;;;;;5034271;28;20022;-62
2023/10/09 15:55:57;;;;;;;32.67;29.47;;;;;;;;;;5032882;28;20014;-63
2023/10/09 15:58:22;;;;;;;64.63;60.38;;;;;;;;;;5034127;28;20033;-60
2023/10/09 16:00:47;;;;;;;66.07;61.27;;;;;;;;;;5033969;28;20048;-62
2023/10/09 16:03:13;;;;;;;61.77;57.67;;;;;;;;;;5034191;28;20108;-60
2023/10/09 16:05:40;;;;;;;;;;;;;;;;;;5034611;28;20036;-60
2023/10/09 16:08:05;;;;;;;82.25;77.07;;;;;;;;;;5034141;28;20368;-62
2023/10/09 16:10:31;;;;;;;39.83;36.63;;;;;;;;;;5034354;28;20024;-60
2023/10/09 16:12:57;;;;;;;27.50;24.70;;;;;;;;;;5034380;28;20040;-60
2023/10/09 16:15:24;;;;;;;32.95;30.13;;;;;;;;;;5034141;28;20029;-62
2023/10/09 16:17:58;;;;;;;28.42;25.88;;;;;;;;;;5033861;28;20021;-60
2023/10/09 16:20:25;;;;;;;38.42;35.65;;;;;;;;;;5032968;28;20036;-60
2023/10/09 16:22:50;;;;;;;59.90;55.80;;;;;;;;;;5033929;28;20010;-60
2023/10/09 16:25:17;;;;;;;50.43;46.27;;;;;;;;;;5033819;28;20542;-60